createdAt,value
2022-08-20T00:02:10.610Z,21.10
2022-08-20T00:04:55.766Z,21.20
2022-08-20T00:07:41.643Z,21.20
2022-08-20T00:10:28.592Z,21.20
2022-08-20T00:13:18.236Z,21.20
2022-08-20T00:16:04.979Z,21.20
2022-08-20T00:18:51.039Z,21.20
2022-08-20T00:21:36.577Z,21.20
2022-08-20T00:24:21.973Z,21.10
2022-08-20T00:27:07.364Z,21.10
2022-08-20T00:29:52.674Z,21.10
2022-08-20T00:32:53.211Z,21.10
2022-08-20T00:35:42.263Z,21.10
2022-08-20T00:38:27.374Z,21.10
2022-08-20T00:41:19.256Z,21.10
2022-08-20T00:44:21.942Z,21.10
2022-08-20T00:47:09.169Z,21.10
2022-08-20T00:49:54.317Z,21.10
2022-08-20T00:52:42.815Z,21.10
2022-08-20T00:55:36.408Z,21.00
2022-08-20T00:58:22.049Z,21.10
2022-08-20T01:01:09.410Z,21.10
2022-08-20T01:03:56.507Z,21.00
2022-08-20T01:06:42.315Z,21.10
2022-08-20T01:09:33.526Z,21.10
2022-08-20T01:12:33.659Z,21.00
2022-08-20T01:15:23.517Z,21.10
2022-08-20T01:18:25.043Z,21.00
2022-08-20T01:21:10.895Z,21.00
2022-08-20T01:23:59.244Z,21.00
2022-08-20T01:26:49.119Z,21.00
2022-08-20T01:29:39.595Z,21.10
2022-08-20T01:32:24.783Z,21.10
2022-08-20T01:35:10.490Z,21.10
2022-08-20T01:37:55.862Z,21.10
2022-08-20T01:41:10.490Z,21.10
2022-08-20T01:43:57.151Z,21.00
2022-08-20T01:46:46.830Z,21.00
2022-08-20T01:49:35.366Z,21.10
2022-08-20T01:52:49.323Z,21.10
2022-08-20T01:55:35.268Z,21.10
2022-08-20T01:58:21.090Z,21.00
2022-08-20T02:01:06.352Z,21.10
2022-08-20T02:03:52.135Z,21.10
2022-08-20T02:06:42.327Z,21.10
2022-08-20T02:09:42.634Z,21.00
2022-08-20T02:12:27.758Z,21.00
2022-08-20T02:15:13.851Z,21.00
2022-08-20T02:17:58.845Z,21.00
2022-08-20T02:20:45.110Z,21.00
2022-08-20T02:23:30.010Z,21.00
2022-08-20T02:26:18.999Z,21.00
2022-08-20T02:29:07.769Z,21.00
2022-08-20T02:32:24.210Z,21.00
2022-08-20T02:35:02.208Z,21.00
2022-08-20T02:37:47.323Z,21.00
2022-08-20T02:40:33.215Z,21.00
2022-08-20T02:43:21.314Z,21.00
2022-08-20T02:46:07.540Z,20.90
2022-08-20T02:48:52.693Z,20.90
2022-08-20T02:51:38.092Z,20.90
2022-08-20T02:54:24.303Z,20.90
2022-08-20T02:57:14.738Z,21.00
2022-08-20T03:00:00.309Z,21.00
2022-08-20T03:02:45.762Z,21.00
2022-08-20T03:05:31.382Z,20.90
2022-08-20T03:08:17.767Z,20.90
2022-08-20T03:11:04.609Z,20.90
2022-08-20T03:13:50.069Z,20.90
2022-08-20T03:16:35.394Z,20.90
2022-08-20T03:19:21.142Z,20.90
2022-08-20T03:22:06.508Z,20.90
2022-08-20T03:24:51.864Z,20.90
2022-08-20T03:27:39.411Z,20.90
2022-08-20T03:30:27.130Z,20.90
2022-08-20T03:33:12.219Z,20.90
2022-08-20T03:35:58.743Z,20.90
2022-08-20T03:38:44.095Z,20.90
2022-08-20T03:41:29.627Z,20.90
2022-08-20T03:44:14.757Z,20.70
2022-08-20T03:47:00.180Z,20.70
2022-08-20T03:49:46.282Z,20.80
2022-08-20T03:52:31.977Z,20.80
2022-08-20T03:55:17.177Z,20.80
2022-08-20T03:58:06.960Z,20.70
2022-08-20T04:00:52.242Z,20.80
2022-08-20T04:03:37.735Z,20.70
2022-08-20T04:06:23.086Z,20.80
2022-08-20T04:09:09.442Z,20.80
2022-08-20T04:11:58.708Z,20.80
2022-08-20T04:14:44.142Z,20.80
2022-08-20T04:17:29.435Z,20.80
2022-08-20T04:20:22.466Z,20.80
2022-08-20T04:23:08.626Z,20.80
2022-08-20T04:25:56.574Z,20.80
2022-08-20T04:28:42.215Z,20.80
2022-08-20T04:31:33.048Z,20.80
2022-08-20T04:34:19.423Z,20.80
2022-08-20T04:37:05.086Z,20.80
2022-08-20T04:40:09.269Z,20.80
2022-08-20T04:42:54.633Z,20.80
2022-08-20T04:45:40.321Z,20.90
2022-08-20T04:48:28.126Z,20.80
2022-08-20T04:51:15.070Z,20.80
2022-08-20T04:54:01.332Z,20.80
2022-08-20T04:56:48.175Z,20.80
2022-08-20T04:59:34.003Z,20.80
2022-08-20T05:02:20.199Z,20.90
2022-08-20T05:05:08.391Z,20.80
2022-08-20T05:07:54.285Z,20.80
2022-08-20T05:10:40.650Z,20.90
2022-08-20T05:13:27.570Z,20.90
2022-08-20T05:16:13.156Z,20.90
2022-08-20T05:18:58.278Z,20.90
2022-08-20T05:21:43.619Z,20.90
2022-08-20T05:24:28.891Z,20.90
2022-08-20T05:27:24.567Z,20.90
2022-08-20T05:30:13.469Z,20.90
2022-08-20T05:33:04.379Z,21.00
2022-08-20T05:35:52.508Z,21.00
2022-08-20T05:38:38.038Z,21.00
2022-08-20T05:41:29.416Z,20.90
2022-08-20T05:44:15.457Z,21.00
2022-08-20T05:47:01.869Z,21.00
2022-08-20T05:49:49.590Z,21.00
2022-08-20T05:52:35.239Z,21.00
2022-08-20T05:55:20.473Z,21.00
2022-08-20T05:58:09.141Z,21.00
2022-08-20T06:00:55.026Z,20.90
2022-08-20T06:03:59.043Z,21.00
2022-08-20T06:06:47.112Z,21.00
2022-08-20T06:09:33.479Z,21.00
2022-08-20T06:12:18.681Z,21.00
2022-08-20T06:15:06.631Z,21.10
2022-08-20T06:17:58.366Z,21.00
2022-08-20T06:20:46.015Z,21.00
2022-08-20T06:23:54.203Z,21.10
2022-08-20T06:26:37.037Z,21.10
2022-08-20T06:29:22.122Z,21.10
2022-08-20T06:32:07.936Z,21.20
2022-08-20T06:34:53.232Z,21.20
2022-08-20T06:37:40.284Z,21.10
2022-08-20T06:40:28.435Z,21.10
2022-08-20T06:43:13.967Z,21.20
2022-08-20T06:45:59.248Z,21.20
2022-08-20T06:48:44.554Z,21.20
2022-08-20T06:51:30.788Z,21.20
2022-08-20T06:54:15.824Z,21.30
2022-08-20T06:57:03.216Z,21.30
2022-08-20T06:59:54.352Z,21.20
2022-08-20T07:02:40.764Z,21.30
2022-08-20T07:05:26.708Z,21.40
2022-08-20T07:08:14.563Z,21.40
2022-08-20T07:10:59.895Z,21.40
2022-08-20T07:13:45.405Z,21.40
2022-08-20T07:16:31.129Z,21.30
2022-08-20T07:19:16.600Z,21.30
2022-08-20T07:22:02.018Z,21.40
2022-08-20T07:24:50.146Z,21.40
2022-08-20T07:27:35.678Z,21.40
2022-08-20T07:30:57.009Z,21.50
2022-08-20T07:33:44.604Z,21.60
2022-08-20T07:36:30.723Z,21.60
2022-08-20T07:39:15.997Z,21.60
2022-08-20T07:42:07.166Z,21.50
2022-08-20T07:44:52.666Z,21.50
2022-08-20T07:47:39.192Z,21.50
2022-08-20T07:50:26.527Z,21.50
2022-08-20T07:53:12.070Z,21.60
2022-08-20T07:55:59.308Z,21.70
2022-08-20T07:58:49.865Z,21.60
2022-08-20T08:01:35.376Z,21.50
2022-08-20T08:04:20.788Z,21.50
2022-08-20T08:07:06.879Z,21.50
2022-08-20T08:09:53.271Z,21.50
2022-08-20T08:12:43.228Z,21.50
2022-08-20T08:15:32.537Z,21.50
2022-08-20T08:18:26.797Z,21.50
2022-08-20T08:21:14.198Z,21.60
2022-08-20T08:23:59.593Z,21.70
2022-08-20T08:26:45.036Z,21.80
2022-08-20T08:29:30.415Z,21.80
2022-08-20T08:32:16.014Z,21.80
2022-08-20T08:35:06.079Z,21.90
2022-08-20T08:37:51.507Z,22.00
2022-08-20T08:40:36.903Z,22.00
2022-08-20T08:43:27.939Z,22.00
2022-08-20T08:46:21.527Z,22.10
2022-08-20T08:49:07.789Z,22.20
2022-08-20T08:52:04.431Z,22.20
2022-08-20T08:54:55.067Z,22.20
2022-08-20T08:57:41.333Z,22.10
2022-08-20T09:00:29.079Z,22.00
2022-08-20T09:03:29.361Z,22.00
2022-08-20T09:06:21.747Z,22.00
2022-08-20T09:09:17.835Z,22.00
2022-08-20T09:12:07.223Z,22.00
2022-08-20T09:14:52.656Z,22.10
2022-08-20T09:17:37.821Z,22.20
2022-08-20T09:20:27.278Z,22.30
2022-08-20T09:23:12.438Z,22.30
2022-08-20T09:25:58.312Z,22.30
2022-08-20T09:28:43.411Z,22.50
2022-08-20T09:31:28.914Z,22.50
2022-08-20T09:34:14.225Z,22.60
2022-08-20T09:36:59.494Z,22.60
2022-08-20T09:39:45.159Z,22.70
2022-08-20T09:42:36.196Z,22.70
2022-08-20T09:45:24.695Z,22.80
2022-08-20T09:48:10.205Z,22.90
2022-08-20T09:50:55.848Z,23.00
2022-08-20T09:53:41.627Z,23.10
2022-08-20T09:56:27.202Z,23.10
2022-08-20T09:59:15.363Z,23.20
2022-08-20T10:02:00.420Z,23.10
2022-08-20T10:04:45.797Z,23.20
2022-08-20T10:07:31.022Z,23.30
2022-08-20T10:10:16.523Z,23.20
2022-08-20T10:13:02.549Z,23.20
2022-08-20T10:15:47.771Z,23.20
2022-08-20T10:18:34.221Z,23.30
2022-08-20T10:21:19.643Z,23.50
2022-08-20T10:24:05.455Z,23.60
2022-08-20T10:26:50.859Z,23.60
2022-08-20T10:29:36.413Z,23.70
2022-08-20T10:32:21.858Z,23.50
2022-08-20T10:35:07.418Z,23.40
2022-08-20T10:37:52.866Z,23.50
2022-08-20T10:40:38.057Z,23.50
2022-08-20T10:43:23.515Z,23.50
2022-08-20T10:46:09.300Z,23.60
2022-08-20T10:48:54.686Z,23.70
2022-08-20T10:51:40.044Z,23.80
2022-08-20T10:54:25.973Z,23.90
2022-08-20T10:57:17.770Z,23.90
2022-08-20T11:00:05.566Z,23.80
2022-08-20T11:02:51.766Z,23.90
2022-08-20T11:05:37.356Z,23.80
2022-08-20T11:08:33.441Z,24.00
2022-08-20T11:11:19.983Z,24.10
2022-08-20T11:14:05.476Z,24.30
2022-08-20T11:16:50.834Z,24.30
2022-08-20T11:19:44.496Z,24.40
2022-08-20T11:22:29.809Z,24.50
2022-08-20T11:25:15.580Z,24.60
2022-08-20T11:28:00.734Z,24.40
2022-08-20T11:30:46.556Z,24.60
2022-08-20T11:33:32.098Z,24.60
2022-08-20T11:36:17.482Z,24.40
2022-08-20T11:39:03.659Z,24.30
2022-08-20T11:41:48.967Z,24.30
2022-08-20T11:44:40.802Z,24.30
2022-08-20T11:47:30.081Z,24.50
2022-08-20T11:50:19.548Z,24.60
2022-08-20T11:53:05.661Z,24.80
2022-08-20T11:55:53.026Z,24.80
2022-08-20T11:58:38.378Z,24.90
2022-08-20T12:01:23.902Z,24.90
2022-08-20T12:04:09.242Z,24.70
2022-08-20T12:06:54.551Z,24.30
2022-08-20T12:09:51.096Z,24.20
2022-08-20T12:12:38.884Z,24.60
2022-08-20T12:15:24.227Z,24.80
2022-08-20T12:18:10.408Z,24.60
2022-08-20T12:20:55.797Z,24.60
2022-08-20T12:23:41.272Z,24.50
2022-08-20T12:26:26.756Z,24.30
2022-08-20T12:29:12.150Z,24.20
2022-08-20T12:31:57.328Z,24.20
2022-08-20T12:34:43.118Z,24.10
2022-08-20T12:37:30.462Z,24.10
2022-08-20T12:40:31.815Z,23.90
2022-08-20T12:43:22.875Z,24.00
2022-08-20T12:46:10.209Z,24.00
2022-08-20T12:48:55.447Z,24.00
2022-08-20T12:51:40.833Z,24.10
2022-08-20T12:54:26.251Z,24.00
2022-08-20T12:57:16.638Z,23.90
2022-08-20T13:00:15.398Z,23.90
2022-08-20T13:03:02.730Z,23.80
2022-08-20T13:05:48.939Z,23.80
2022-08-20T13:08:34.308Z,23.80
2022-08-20T13:11:19.494Z,23.90
2022-08-20T13:14:05.307Z,23.90
2022-08-20T13:16:56.497Z,23.90
2022-08-20T13:19:41.605Z,23.90
2022-08-20T13:22:27.000Z,24.00
2022-08-20T13:25:13.619Z,24.10
2022-08-20T13:28:00.772Z,23.90
2022-08-20T13:30:45.951Z,23.80
2022-08-20T13:33:31.289Z,23.80
2022-08-20T13:36:16.848Z,23.70
2022-08-20T13:39:07.522Z,23.60
2022-08-20T13:41:52.575Z,23.60
2022-08-20T13:44:38.538Z,23.60
2022-08-20T13:47:25.298Z,23.50
2022-08-20T13:50:17.476Z,23.60
2022-08-20T13:53:02.908Z,23.70
2022-08-20T13:55:48.053Z,23.80
2022-08-20T13:58:33.559Z,23.90
2022-08-20T14:01:18.854Z,23.90
2022-08-20T14:04:04.451Z,23.90
2022-08-20T14:06:49.821Z,23.90
2022-08-20T14:09:38.684Z,23.90
2022-08-20T14:12:24.496Z,23.80
2022-08-20T14:15:10.727Z,23.80
2022-08-20T14:17:57.491Z,23.70
2022-08-20T14:20:45.306Z,23.70
2022-08-20T14:23:31.059Z,23.60
2022-08-20T14:26:22.509Z,23.50
2022-08-20T14:29:07.827Z,23.50
2022-08-20T14:31:53.355Z,23.40
2022-08-20T14:34:39.788Z,23.50
2022-08-20T14:37:43.209Z,23.50
2022-08-20T14:40:28.872Z,23.30
2022-08-20T14:43:14.207Z,23.30
2022-08-20T14:45:59.512Z,23.30
2022-08-20T14:48:44.785Z,23.30
2022-08-20T14:51:38.790Z,23.40
2022-08-20T14:54:24.188Z,23.50
2022-08-20T14:57:13.421Z,23.50
2022-08-20T14:59:59.128Z,23.60
2022-08-20T15:02:45.297Z,23.50
2022-08-20T15:05:31.393Z,23.40
2022-08-20T15:08:16.448Z,23.40
2022-08-20T15:11:02.460Z,23.40
2022-08-20T15:13:48.012Z,23.40
2022-08-20T15:16:34.005Z,23.40
2022-08-20T15:19:19.660Z,23.40
2022-08-20T15:22:05.738Z,23.50
2022-08-20T15:24:51.494Z,23.60
2022-08-20T15:27:43.539Z,23.70
2022-08-20T15:30:30.155Z,23.70
2022-08-20T15:33:15.085Z,23.80
2022-08-20T15:36:00.364Z,23.80
2022-08-20T15:38:46.124Z,23.80
2022-08-20T15:41:34.544Z,23.90
2022-08-20T15:44:20.059Z,24.00
2022-08-20T15:47:20.298Z,24.10
2022-08-20T15:50:34.248Z,24.30
2022-08-20T15:53:35.615Z,24.10
2022-08-20T15:56:38.763Z,24.10
2022-08-20T15:59:47.629Z,24.00
2022-08-20T16:02:59.026Z,24.00
2022-08-20T16:06:03.310Z,23.80
2022-08-20T16:09:10.748Z,23.90
2022-08-20T16:11:58.835Z,23.80
2022-08-20T16:14:46.895Z,23.80
2022-08-20T16:17:42.484Z,23.80
2022-08-20T16:20:49.219Z,23.70
2022-08-20T16:23:38.782Z,23.70
2022-08-20T16:27:09.179Z,23.80
2022-08-20T16:30:00.785Z,23.50
2022-08-20T16:32:53.094Z,23.50
2022-08-20T16:35:54.505Z,23.50
2022-08-20T16:38:48.191Z,23.40
2022-08-20T16:41:58.162Z,23.40
2022-08-20T16:44:54.450Z,23.50
2022-08-20T16:47:41.092Z,23.50
2022-08-20T16:50:31.745Z,23.50
2022-08-20T16:53:21.331Z,23.50
2022-08-20T16:56:06.598Z,23.50
2022-08-20T16:58:52.158Z,23.30
2022-08-20T17:01:38.178Z,23.40
2022-08-20T17:04:23.541Z,23.40
2022-08-20T17:07:08.911Z,23.50
2022-08-20T17:10:12.076Z,23.50
2022-08-20T17:13:03.745Z,23.30
2022-08-20T17:16:01.559Z,23.30
2022-08-20T17:18:48.247Z,23.10
2022-08-20T17:21:38.250Z,23.00
2022-08-20T17:24:30.191Z,23.00
2022-08-20T17:27:33.339Z,23.00
2022-08-20T17:30:21.473Z,23.10
2022-08-20T17:33:18.425Z,23.00
2022-08-20T17:36:22.206Z,23.10
2022-08-20T17:39:16.561Z,23.10
2022-08-20T17:42:17.271Z,23.10
2022-08-20T17:45:11.855Z,23.00
2022-08-20T17:47:59.743Z,22.90
2022-08-20T17:50:45.131Z,22.90
2022-08-20T17:53:35.779Z,22.90
2022-08-20T17:56:28.234Z,23.00
2022-08-20T18:00:00.265Z,23.00
2022-08-20T18:02:34.805Z,23.00
2022-08-20T18:05:21.524Z,23.00
2022-08-20T18:08:19.654Z,23.10
2022-08-20T18:11:23.236Z,23.00
2022-08-20T18:14:25.820Z,23.00
2022-08-20T18:17:36.385Z,23.00
2022-08-20T18:20:42.847Z,23.00
2022-08-20T18:23:57.214Z,23.00
2022-08-20T18:26:56.752Z,23.00
2022-08-20T18:29:46.679Z,22.90
2022-08-20T18:32:37.983Z,22.90
2022-08-20T18:35:45.521Z,22.90
2022-08-20T18:38:34.446Z,22.80
2022-08-20T18:41:40.376Z,22.80
2022-08-20T18:44:41.935Z,22.70
2022-08-20T18:47:38.837Z,22.70
2022-08-20T18:50:39.115Z,22.80
2022-08-20T18:53:33.944Z,22.70
2022-08-20T18:56:34.987Z,22.70
2022-08-20T18:59:20.806Z,22.70
2022-08-20T19:02:26.203Z,22.70
2022-08-20T19:05:12.997Z,22.70
2022-08-20T19:08:01.421Z,22.60
2022-08-20T19:10:56.975Z,22.60
2022-08-20T19:13:51.751Z,22.60
2022-08-20T19:16:42.057Z,22.50
2022-08-20T19:19:32.662Z,22.40
2022-08-20T19:22:21.016Z,22.50
2022-08-20T19:25:07.180Z,22.40
2022-08-20T19:27:53.372Z,22.40
2022-08-20T19:30:41.517Z,22.40
2022-08-20T19:33:31.503Z,22.30
2022-08-20T19:36:30.206Z,22.30
2022-08-20T19:39:18.494Z,22.30
2022-08-20T19:42:15.267Z,22.20
2022-08-20T19:45:05.974Z,22.20
2022-08-20T19:47:57.478Z,22.20
2022-08-20T19:50:52.233Z,22.20
2022-08-20T19:53:46.090Z,22.20
2022-08-20T19:56:40.713Z,22.10
2022-08-20T19:59:26.344Z,22.10
2022-08-20T20:02:20.565Z,22.10
2022-08-20T20:05:09.232Z,22.00
2022-08-20T20:07:58.506Z,22.00
2022-08-20T20:10:49.575Z,21.90
2022-08-20T20:13:37.647Z,21.90
2022-08-20T20:16:25.158Z,21.90
2022-08-20T20:19:28.627Z,21.80
2022-08-20T20:22:30.806Z,21.80
2022-08-20T20:25:22.072Z,21.80
2022-08-20T20:28:28.979Z,21.80
2022-08-20T20:31:25.280Z,21.80
2022-08-20T20:34:13.562Z,21.80
2022-08-20T20:37:11.550Z,21.70
2022-08-20T20:40:22.706Z,21.60
2022-08-20T20:43:10.567Z,21.60
2022-08-20T20:46:16.569Z,21.60
2022-08-20T20:49:25.343Z,21.60
2022-08-20T20:52:21.847Z,21.50
2022-08-20T20:55:20.890Z,21.50
2022-08-20T20:58:06.229Z,21.50
2022-08-20T21:00:51.606Z,21.50
2022-08-20T21:03:36.897Z,21.50
2022-08-20T21:06:26.942Z,21.40
2022-08-20T21:09:12.342Z,21.50
2022-08-20T21:11:57.447Z,21.50
2022-08-20T21:14:44.968Z,21.40
2022-08-20T21:17:30.424Z,21.40
2022-08-20T21:20:16.273Z,21.40
2022-08-20T21:23:01.520Z,21.40
2022-08-20T21:25:46.937Z,21.30
2022-08-20T21:28:33.746Z,21.30
2022-08-20T21:31:18.843Z,21.30
2022-08-20T21:34:04.329Z,21.30
2022-08-20T21:36:49.861Z,21.20
2022-08-20T21:39:35.341Z,21.30
2022-08-20T21:42:29.343Z,21.30
2022-08-20T21:45:18.509Z,21.10
2022-08-20T21:48:05.304Z,21.20
2022-08-20T21:50:51.259Z,21.20
2022-08-20T21:53:36.639Z,21.10
2022-08-20T21:56:22.474Z,21.10
2022-08-20T21:59:09.358Z,21.10
2022-08-20T22:01:55.023Z,21.20
2022-08-20T22:04:41.030Z,21.10
2022-08-20T22:07:26.462Z,21.20
2022-08-20T22:10:13.098Z,21.10
2022-08-20T22:12:58.445Z,21.10
2022-08-20T22:15:43.706Z,21.10
2022-08-20T22:18:29.198Z,21.10
2022-08-20T22:21:25.014Z,21.10
2022-08-20T22:24:11.433Z,21.10
2022-08-20T22:26:57.017Z,21.10
2022-08-20T22:29:42.421Z,21.10
2022-08-20T22:32:33.472Z,21.10
2022-08-20T22:35:34.048Z,21.10
2022-08-20T22:38:19.524Z,21.10
2022-08-20T22:41:09.417Z,21.10
2022-08-20T22:43:56.867Z,21.20
2022-08-20T22:46:47.543Z,21.20
2022-08-20T22:49:39.616Z,21.10
2022-08-20T22:52:25.496Z,21.20
2022-08-20T22:55:12.202Z,21.20
2022-08-20T22:57:57.622Z,21.10
2022-08-20T23:00:45.291Z,21.10
2022-08-20T23:03:39.265Z,21.10
2022-08-20T23:06:29.470Z,21.10
2022-08-20T23:09:14.549Z,21.10
2022-08-20T23:12:08.158Z,21.10
2022-08-20T23:14:54.804Z,21.00
2022-08-20T23:17:40.265Z,21.10
2022-08-20T23:20:25.829Z,21.00
2022-08-20T23:23:12.083Z,21.00
2022-08-20T23:25:57.744Z,21.00
2022-08-20T23:28:43.032Z,21.10
2022-08-20T23:31:28.523Z,21.10
2022-08-20T23:34:13.760Z,21.10
2022-08-20T23:37:00.974Z,21.00
2022-08-20T23:39:46.447Z,21.10
2022-08-20T23:42:31.937Z,21.10
2022-08-20T23:45:17.626Z,20.90
2022-08-20T23:48:03.519Z,20.90
2022-08-20T23:50:48.607Z,20.90
2022-08-20T23:53:34.360Z,21.00
2022-08-20T23:56:19.559Z,21.00
2022-08-20T23:59:05.785Z,21.00
